sensor_id;sensor_type;location;lat;lon;timestamp;P1;durP1;ratioP1;P2;durP2;ratioP2
4462;SDS011;2244;50.200;8.220;2023-03-01T00:01:25;21.47;;;13.20;;
4462;SDS011;2244;50.200;8.220;2023-03-01T00:03:53;18.17;;;12.10;;
4462;SDS011;2244;50.200;8.220;2023-03-01T00:06:21;21.30;;;13.10;;
4462;SDS011;2244;50.200;8.220;2023-03-01T00:08:49;20.93;;;12.87;;
4462;SDS011;2244;50.200;8.220;2023-03-01T00:11:20;20.90;;;12.93;;
4462;SDS011;2244;50.200;8.220;2023-03-01T00:13:49;20.93;;;13.17;;
4462;SDS011;2244;50.200;8.220;2023-03-01T00:16:17;20.57;;;12.23;;
4462;SDS011;2244;50.200;8.220;2023-03-01T00:18:45;20.63;;;12.60;;
4462;SDS011;2244;50.200;8.220;2023-03-01T00:21:12;23.37;;;13.63;;
4462;SDS011;2244;50.200;8.220;2023-03-01T00:23:40;23.80;;;13.50;;
4462;SDS011;2244;50.200;8.220;2023-03-01T00:26:09;21.93;;;14.70;;
4462;SDS011;2244;50.200;8.220;2023-03-01T00:28:36;22.50;;;13.73;;
4462;SDS011;2244;50.200;8.220;2023-03-01T00:31:08;22.10;;;12.77;;
4462;SDS011;2244;50.200;8.220;2023-03-01T00:33:36;21.33;;;12.90;;
4462;SDS011;2244;50.200;8.220;2023-03-01T00:36:04;23.07;;;14.80;;
4462;SDS011;2244;50.200;8.220;2023-03-01T00:38:34;22.00;;;13.53;;
4462;SDS011;2244;50.200;8.220;2023-03-01T00:41:09;22.60;;;13.50;;
4462;SDS011;2244;50.200;8.220;2023-03-01T00:43:32;20.40;;;13.90;;
4462;SDS011;2244;50.200;8.220;2023-03-01T00:46:05;22.67;;;14.00;;
4462;SDS011;2244;50.200;8.220;2023-03-01T00:48:30;23.33;;;14.73;;
4462;SDS011;2244;50.200;8.220;2023-03-01T00:51:03;23.90;;;15.00;;
4462;SDS011;2244;50.200;8.220;2023-03-01T00:53:26;20.70;;;13.60;;
4462;SDS011;2244;50.200;8.220;2023-03-01T00:55:54;23.70;;;14.87;;
4462;SDS011;2244;50.200;8.220;2023-03-01T00:58:23;22.73;;;14.67;;
4462;SDS011;2244;50.200;8.220;2023-03-01T01:00:50;23.17;;;14.53;;
4462;SDS011;2244;50.200;8.220;2023-03-01T01:03:19;21.60;;;14.37;;
4462;SDS011;2244;50.200;8.220;2023-03-01T01:05:46;23.60;;;14.77;;
4462;SDS011;2244;50.200;8.220;2023-03-01T01:08:13;24.50;;;14.30;;
4462;SDS011;2244;50.200;8.220;2023-03-01T01:10:43;23.70;;;13.97;;
4462;SDS011;2244;50.200;8.220;2023-03-01T01:13:10;23.73;;;14.00;;
4462;SDS011;2244;50.200;8.220;2023-03-01T01:15:38;24.43;;;14.43;;
4462;SDS011;2244;50.200;8.220;2023-03-01T01:18:05;24.40;;;14.67;;
4462;SDS011;2244;50.200;8.220;2023-03-01T01:20:35;24.30;;;14.70;;
4462;SDS011;2244;50.200;8.220;2023-03-01T01:23:04;22.80;;;14.60;;
4462;SDS011;2244;50.200;8.220;2023-03-01T01:25:34;23.83;;;14.67;;
4462;SDS011;2244;50.200;8.220;2023-03-01T01:28:02;24.60;;;15.67;;
4462;SDS011;2244;50.200;8.220;2023-03-01T01:30:29;23.17;;;14.80;;
4462;SDS011;2244;50.200;8.220;2023-03-01T01:32:57;20.10;;;13.63;;
4462;SDS011;2244;50.200;8.220;2023-03-01T01:35:24;28.30;;;15.60;;
4462;SDS011;2244;50.200;8.220;2023-03-01T01:37:51;24.97;;;15.77;;
4462;SDS011;2244;50.200;8.220;2023-03-01T01:40:19;23.43;;;15.13;;
4462;SDS011;2244;50.200;8.220;2023-03-01T01:42:46;23.43;;;14.60;;
4462;SDS011;2244;50.200;8.220;2023-03-01T01:45:30;22.13;;;14.63;;
4462;SDS011;2244;50.200;8.220;2023-03-01T01:47:59;23.80;;;15.30;;
4462;SDS011;2244;50.200;8.220;2023-03-01T01:50:26;24.47;;;14.70;;
4462;SDS011;2244;50.200;8.220;2023-03-01T01:52:55;24.50;;;15.13;;
4462;SDS011;2244;50.200;8.220;2023-03-01T01:55:23;22.90;;;14.70;;
4462;SDS011;2244;50.200;8.220;2023-03-01T01:57:52;26.50;;;14.97;;
4462;SDS011;2244;50.200;8.220;2023-03-01T02:00:21;23.00;;;14.33;;
4462;SDS011;2244;50.200;8.220;2023-03-01T02:02:50;26.30;;;15.77;;
4462;SDS011;2244;50.200;8.220;2023-03-01T02:05:22;24.20;;;15.03;;
4462;SDS011;2244;50.200;8.220;2023-03-01T02:07:49;23.63;;;14.33;;
4462;SDS011;2244;50.200;8.220;2023-03-01T02:10:17;25.63;;;14.90;;
4462;SDS011;2244;50.200;8.220;2023-03-01T02:12:44;23.33;;;14.20;;
4462;SDS011;2244;50.200;8.220;2023-03-01T02:15:12;22.60;;;15.30;;
4462;SDS011;2244;50.200;8.220;2023-03-01T02:17:40;24.50;;;14.10;;
4462;SDS011;2244;50.200;8.220;2023-03-01T02:20:26;28.27;;;14.47;;
4462;SDS011;2244;50.200;8.220;2023-03-01T02:22:52;23.60;;;14.40;;
4462;SDS011;2244;50.200;8.220;2023-03-01T02:25:41;21.57;;;14.17;;
4462;SDS011;2244;50.200;8.220;2023-03-01T02:30:39;26.50;;;15.70;;
4462;SDS011;2244;50.200;8.220;2023-03-01T02:33:11;26.47;;;16.30;;
4462;SDS011;2244;50.200;8.220;2023-03-01T02:35:39;30.40;;;16.60;;
4462;SDS011;2244;50.200;8.220;2023-03-01T02:38:07;25.17;;;15.60;;
4462;SDS011;2244;50.200;8.220;2023-03-01T02:40:36;23.63;;;15.17;;
4462;SDS011;2244;50.200;8.220;2023-03-01T02:43:04;23.27;;;14.87;;
4462;SDS011;2244;50.200;8.220;2023-03-01T02:45:34;25.50;;;16.10;;
4462;SDS011;2244;50.200;8.220;2023-03-01T02:48:01;25.57;;;15.83;;
4462;SDS011;2244;50.200;8.220;2023-03-01T02:53:01;22.33;;;14.87;;
4462;SDS011;2244;50.200;8.220;2023-03-01T02:55:30;25.10;;;16.00;;
4462;SDS011;2244;50.200;8.220;2023-03-01T02:57:57;25.13;;;15.30;;
4462;SDS011;2244;50.200;8.220;2023-03-01T03:00:29;24.83;;;15.40;;
4462;SDS011;2244;50.200;8.220;2023-03-01T03:02:55;23.17;;;15.40;;
4462;SDS011;2244;50.200;8.220;2023-03-01T03:05:28;25.50;;;16.10;;
4462;SDS011;2244;50.200;8.220;2023-03-01T03:07:56;24.03;;;14.80;;
4462;SDS011;2244;50.200;8.220;2023-03-01T03:10:30;24.90;;;17.00;;
4462;SDS011;2244;50.200;8.220;2023-03-01T03:12:58;24.70;;;15.17;;
4462;SDS011;2244;50.200;8.220;2023-03-01T03:15:22;27.90;;;16.07;;
4462;SDS011;2244;50.200;8.220;2023-03-01T03:17:50;25.30;;;16.80;;
4462;SDS011;2244;50.200;8.220;2023-03-01T03:20:19;26.23;;;17.10;;
4462;SDS011;2244;50.200;8.220;2023-03-01T03:22:48;23.63;;;15.27;;
4462;SDS011;2244;50.200;8.220;2023-03-01T03:25:16;23.23;;;15.80;;
4462;SDS011;2244;50.200;8.220;2023-03-01T03:27:44;22.20;;;15.63;;
4462;SDS011;2244;50.200;8.220;2023-03-01T03:30:13;24.60;;;16.40;;
4462;SDS011;2244;50.200;8.220;2023-03-01T03:32:41;25.50;;;16.97;;
4462;SDS011;2244;50.200;8.220;2023-03-01T03:35:10;25.57;;;16.23;;
4462;SDS011;2244;50.200;8.220;2023-03-01T03:37:38;23.83;;;15.40;;
4462;SDS011;2244;50.200;8.220;2023-03-01T03:40:24;27.63;;;16.63;;
4462;SDS011;2244;50.200;8.220;2023-03-01T03:42:52;24.83;;;17.07;;
4462;SDS011;2244;50.200;8.220;2023-03-01T03:45:19;25.73;;;16.10;;
4462;SDS011;2244;50.200;8.220;2023-03-01T03:47:47;25.63;;;17.37;;
4462;SDS011;2244;50.200;8.220;2023-03-01T03:50:15;26.43;;;16.63;;
4462;SDS011;2244;50.200;8.220;2023-03-01T03:52:43;26.40;;;16.90;;
4462;SDS011;2244;50.200;8.220;2023-03-01T03:55:11;29.87;;;19.17;;
4462;SDS011;2244;50.200;8.220;2023-03-01T03:57:41;29.03;;;19.10;;
4462;SDS011;2244;50.200;8.220;2023-03-01T04:00:08;26.03;;;16.97;;
4462;SDS011;2244;50.200;8.220;2023-03-01T04:02:41;30.07;;;18.37;;
4462;SDS011;2244;50.200;8.220;2023-03-01T04:05:10;30.07;;;19.37;;
4462;SDS011;2244;50.200;8.220;2023-03-01T04:07:38;26.73;;;17.30;;
4462;SDS011;2244;50.200;8.220;2023-03-01T04:10:07;28.47;;;17.50;;
4462;SDS011;2244;50.200;8.220;2023-03-01T04:12:35;27.73;;;17.63;;
4462;SDS011;2244;50.200;8.220;2023-03-01T04:15:03;31.43;;;19.27;;
4462;SDS011;2244;50.200;8.220;2023-03-01T04:17:32;26.47;;;17.27;;
4462;SDS011;2244;50.200;8.220;2023-03-01T04:20:00;28.73;;;18.47;;
4462;SDS011;2244;50.200;8.220;2023-03-01T04:22:29;26.43;;;17.20;;
4462;SDS011;2244;50.200;8.220;2023-03-01T04:24:58;28.40;;;19.30;;
4462;SDS011;2244;50.200;8.220;2023-03-01T04:27:27;29.23;;;18.93;;
4462;SDS011;2244;50.200;8.220;2023-03-01T04:29:54;27.83;;;18.67;;
4462;SDS011;2244;50.200;8.220;2023-03-01T04:32:22;28.73;;;17.60;;
4462;SDS011;2244;50.200;8.220;2023-03-01T04:34:49;30.77;;;18.90;;
4462;SDS011;2244;50.200;8.220;2023-03-01T04:37:16;28.90;;;18.67;;
4462;SDS011;2244;50.200;8.220;2023-03-01T04:39:44;27.50;;;18.87;;
4462;SDS011;2244;50.200;8.220;2023-03-01T04:42:14;34.83;;;20.73;;
4462;SDS011;2244;50.200;8.220;2023-03-01T04:44:43;30.30;;;19.00;;
4462;SDS011;2244;50.200;8.220;2023-03-01T04:47:10;31.47;;;20.20;;
4462;SDS011;2244;50.200;8.220;2023-03-01T04:49:38;33.17;;;22.43;;
4462;SDS011;2244;50.200;8.220;2023-03-01T04:52:05;29.70;;;17.87;;
4462;SDS011;2244;50.200;8.220;2023-03-01T04:54:33;30.97;;;19.30;;
4462;SDS011;2244;50.200;8.220;2023-03-01T04:57:01;33.83;;;20.57;;
4462;SDS011;2244;50.200;8.220;2023-03-01T04:59:29;28.40;;;18.67;;
4462;SDS011;2244;50.200;8.220;2023-03-01T05:01:56;31.87;;;19.20;;
4462;SDS011;2244;50.200;8.220;2023-03-01T05:04:24;28.63;;;19.20;;
4462;SDS011;2244;50.200;8.220;2023-03-01T05:06:52;30.17;;;18.73;;
4462;SDS011;2244;50.200;8.220;2023-03-01T05:09:19;32.23;;;21.00;;
4462;SDS011;2244;50.200;8.220;2023-03-01T05:11:47;33.70;;;20.90;;
4462;SDS011;2244;50.200;8.220;2023-03-01T05:14:14;32.10;;;20.20;;
4462;SDS011;2244;50.200;8.220;2023-03-01T05:16:41;28.70;;;19.20;;
4462;SDS011;2244;50.200;8.220;2023-03-01T05:19:09;31.40;;;19.80;;
4462;SDS011;2244;50.200;8.220;2023-03-01T05:21:44;36.03;;;21.43;;
4462;SDS011;2244;50.200;8.220;2023-03-01T05:24:30;30.87;;;19.30;;
4462;SDS011;2244;50.200;8.220;2023-03-01T05:26:58;29.33;;;19.40;;
4462;SDS011;2244;50.200;8.220;2023-03-01T05:29:26;32.03;;;20.10;;
4462;SDS011;2244;50.200;8.220;2023-03-01T05:31:54;31.33;;;20.60;;
4462;SDS011;2244;50.200;8.220;2023-03-01T05:34:26;30.90;;;18.60;;
4462;SDS011;2244;50.200;8.220;2023-03-01T05:36:54;30.20;;;19.30;;
4462;SDS011;2244;50.200;8.220;2023-03-01T05:39:26;33.47;;;20.80;;
4462;SDS011;2244;50.200;8.220;2023-03-01T05:41:53;31.90;;;19.80;;
4462;SDS011;2244;50.200;8.220;2023-03-01T05:44:21;29.50;;;18.50;;
4462;SDS011;2244;50.200;8.220;2023-03-01T05:46:48;35.07;;;20.80;;
4462;SDS011;2244;50.200;8.220;2023-03-01T05:49:15;33.53;;;20.80;;
4462;SDS011;2244;50.200;8.220;2023-03-01T05:51:45;35.13;;;19.80;;
4462;SDS011;2244;50.200;8.220;2023-03-01T05:54:12;35.97;;;21.20;;
4462;SDS011;2244;50.200;8.220;2023-03-01T05:56:39;32.37;;;19.33;;
4462;SDS011;2244;50.200;8.220;2023-03-01T05:59:06;31.27;;;18.60;;
4462;SDS011;2244;50.200;8.220;2023-03-01T06:01:34;30.03;;;19.50;;
4462;SDS011;2244;50.200;8.220;2023-03-01T06:04:03;33.90;;;21.30;;
4462;SDS011;2244;50.200;8.220;2023-03-01T06:06:34;29.83;;;18.60;;
4462;SDS011;2244;50.200;8.220;2023-03-01T06:09:01;31.43;;;18.30;;
4462;SDS011;2244;50.200;8.220;2023-03-01T06:11:28;31.83;;;20.90;;
4462;SDS011;2244;50.200;8.220;2023-03-01T06:13:56;33.20;;;20.90;;
4462;SDS011;2244;50.200;8.220;2023-03-01T06:16:23;37.63;;;21.03;;
4462;SDS011;2244;50.200;8.220;2023-03-01T06:18:53;28.30;;;18.30;;
4462;SDS011;2244;50.200;8.220;2023-03-01T06:21:20;32.03;;;21.23;;
4462;SDS011;2244;50.200;8.220;2023-03-01T06:23:48;32.23;;;20.30;;
4462;SDS011;2244;50.200;8.220;2023-03-01T06:26:15;32.87;;;19.67;;
4462;SDS011;2244;50.200;8.220;2023-03-01T06:28:42;32.97;;;20.87;;
4462;SDS011;2244;50.200;8.220;2023-03-01T06:31:11;30.00;;;20.43;;
4462;SDS011;2244;50.200;8.220;2023-03-01T06:33:42;29.87;;;20.00;;
4462;SDS011;2244;50.200;8.220;2023-03-01T06:36:10;33.70;;;20.20;;
4462;SDS011;2244;50.200;8.220;2023-03-01T06:38:38;32.70;;;19.97;;
4462;SDS011;2244;50.200;8.220;2023-03-01T06:41:07;33.80;;;20.17;;
4462;SDS011;2244;50.200;8.220;2023-03-01T06:43:34;35.40;;;20.73;;
4462;SDS011;2244;50.200;8.220;2023-03-01T06:46:05;34.70;;;20.97;;
4462;SDS011;2244;50.200;8.220;2023-03-01T06:48:33;34.53;;;21.40;;
4462;SDS011;2244;50.200;8.220;2023-03-01T06:51:00;32.80;;;20.83;;
4462;SDS011;2244;50.200;8.220;2023-03-01T06:53:28;36.27;;;20.97;;
4462;SDS011;2244;50.200;8.220;2023-03-01T06:55:57;33.30;;;20.73;;
4462;SDS011;2244;50.200;8.220;2023-03-01T06:58:26;38.43;;;22.37;;
4462;SDS011;2244;50.200;8.220;2023-03-01T07:00:53;30.33;;;20.27;;
4462;SDS011;2244;50.200;8.220;2023-03-01T07:03:21;32.37;;;21.57;;
4462;SDS011;2244;50.200;8.220;2023-03-01T07:05:49;34.27;;;21.60;;
4462;SDS011;2244;50.200;8.220;2023-03-01T07:08:18;34.70;;;22.03;;
4462;SDS011;2244;50.200;8.220;2023-03-01T07:10:45;33.73;;;21.87;;
4462;SDS011;2244;50.200;8.220;2023-03-01T07:13:12;29.37;;;20.43;;
4462;SDS011;2244;50.200;8.220;2023-03-01T07:15:40;28.50;;;19.13;;
4462;SDS011;2244;50.200;8.220;2023-03-01T07:18:08;35.50;;;20.13;;
4462;SDS011;2244;50.200;8.220;2023-03-01T07:20:35;32.57;;;20.10;;
4462;SDS011;2244;50.200;8.220;2023-03-01T07:23:02;38.53;;;23.03;;
4462;SDS011;2244;50.200;8.220;2023-03-01T07:25:29;31.00;;;20.03;;
4462;SDS011;2244;50.200;8.220;2023-03-01T07:27:57;29.33;;;20.70;;
4462;SDS011;2244;50.200;8.220;2023-03-01T07:30:25;30.10;;;18.77;;
4462;SDS011;2244;50.200;8.220;2023-03-01T07:32:54;27.20;;;17.80;;
4462;SDS011;2244;50.200;8.220;2023-03-01T07:35:22;31.70;;;18.97;;
4462;SDS011;2244;50.200;8.220;2023-03-01T07:37:50;29.90;;;18.97;;
4462;SDS011;2244;50.200;8.220;2023-03-01T07:40:17;35.53;;;22.53;;
4462;SDS011;2244;50.200;8.220;2023-03-01T07:42:45;36.97;;;22.90;;
4462;SDS011;2244;50.200;8.220;2023-03-01T07:45:12;36.07;;;23.40;;
4462;SDS011;2244;50.200;8.220;2023-03-01T07:47:41;39.23;;;25.00;;
4462;SDS011;2244;50.200;8.220;2023-03-01T07:50:08;29.17;;;18.40;;
4462;SDS011;2244;50.200;8.220;2023-03-01T07:52:36;31.27;;;19.73;;
4462;SDS011;2244;50.200;8.220;2023-03-01T07:55:03;28.40;;;17.57;;
4462;SDS011;2244;50.200;8.220;2023-03-01T07:57:31;29.23;;;18.23;;
4462;SDS011;2244;50.200;8.220;2023-03-01T07:59:58;26.70;;;16.70;;
4462;SDS011;2244;50.200;8.220;2023-03-01T08:02:25;29.63;;;19.57;;
4462;SDS011;2244;50.200;8.220;2023-03-01T08:04:53;28.60;;;18.67;;
4462;SDS011;2244;50.200;8.220;2023-03-01T08:07:20;31.37;;;17.53;;
4462;SDS011;2244;50.200;8.220;2023-03-01T08:09:47;29.37;;;18.93;;
4462;SDS011;2244;50.200;8.220;2023-03-01T08:12:14;31.80;;;18.00;;
4462;SDS011;2244;50.200;8.220;2023-03-01T08:14:43;27.70;;;17.43;;
4462;SDS011;2244;50.200;8.220;2023-03-01T08:17:10;26.10;;;15.17;;
4462;SDS011;2244;50.200;8.220;2023-03-01T08:19:39;30.30;;;17.80;;
4462;SDS011;2244;50.200;8.220;2023-03-01T08:22:06;25.30;;;17.47;;
4462;SDS011;2244;50.200;8.220;2023-03-01T08:24:33;27.07;;;17.80;;
4462;SDS011;2244;50.200;8.220;2023-03-01T08:27:01;26.37;;;18.20;;
4462;SDS011;2244;50.200;8.220;2023-03-01T08:29:32;27.40;;;16.97;;
4462;SDS011;2244;50.200;8.220;2023-03-01T08:32:00;29.20;;;16.67;;
4462;SDS011;2244;50.200;8.220;2023-03-01T08:34:27;26.23;;;16.70;;
4462;SDS011;2244;50.200;8.220;2023-03-01T08:36:55;25.40;;;16.97;;
4462;SDS011;2244;50.200;8.220;2023-03-01T08:39:22;24.73;;;16.10;;
4462;SDS011;2244;50.200;8.220;2023-03-01T08:41:49;25.63;;;16.00;;
4462;SDS011;2244;50.200;8.220;2023-03-01T08:44:17;26.80;;;17.23;;
4462;SDS011;2244;50.200;8.220;2023-03-01T08:46:44;26.77;;;16.90;;
4462;SDS011;2244;50.200;8.220;2023-03-01T08:49:16;27.07;;;16.63;;
4462;SDS011;2244;50.200;8.220;2023-03-01T08:51:44;25.67;;;16.77;;
4462;SDS011;2244;50.200;8.220;2023-03-01T08:54:13;28.90;;;18.07;;
4462;SDS011;2244;50.200;8.220;2023-03-01T08:56:41;25.97;;;15.70;;
4462;SDS011;2244;50.200;8.220;2023-03-01T08:59:09;24.83;;;15.43;;
4462;SDS011;2244;50.200;8.220;2023-03-01T09:01:37;26.87;;;17.67;;
4462;SDS011;2244;50.200;8.220;2023-03-01T09:04:04;26.33;;;16.40;;
4462;SDS011;2244;50.200;8.220;2023-03-01T09:06:33;24.87;;;16.17;;
4462;SDS011;2244;50.200;8.220;2023-03-01T09:09:01;27.67;;;16.67;;
4462;SDS011;2244;50.200;8.220;2023-03-01T09:11:29;27.93;;;16.77;;
4462;SDS011;2244;50.200;8.220;2023-03-01T09:13:56;25.13;;;15.43;;
4462;SDS011;2244;50.200;8.220;2023-03-01T09:16:24;27.20;;;16.20;;
4462;SDS011;2244;50.200;8.220;2023-03-01T09:18:52;27.70;;;17.10;;
4462;SDS011;2244;50.200;8.220;2023-03-01T09:21:20;24.87;;;15.40;;
4462;SDS011;2244;50.200;8.220;2023-03-01T09:23:50;23.53;;;15.33;;
4462;SDS011;2244;50.200;8.220;2023-03-01T09:26:18;27.50;;;17.27;;
4462;SDS011;2244;50.200;8.220;2023-03-01T09:28:48;26.07;;;16.57;;
4462;SDS011;2244;50.200;8.220;2023-03-01T09:31:16;26.40;;;16.63;;
4462;SDS011;2244;50.200;8.220;2023-03-01T09:33:45;26.83;;;17.13;;
4462;SDS011;2244;50.200;8.220;2023-03-01T09:36:19;26.20;;;16.40;;
4462;SDS011;2244;50.200;8.220;2023-03-01T09:38:42;26.27;;;16.17;;
4462;SDS011;2244;50.200;8.220;2023-03-01T09:41:10;26.30;;;16.13;;
4462;SDS011;2244;50.200;8.220;2023-03-01T09:43:48;27.00;;;16.87;;
4462;SDS011;2244;50.200;8.220;2023-03-01T09:46:19;25.97;;;16.63;;
4462;SDS011;2244;50.200;8.220;2023-03-01T09:48:55;27.03;;;17.17;;
4462;SDS011;2244;50.200;8.220;2023-03-01T09:51:23;26.70;;;16.53;;
4462;SDS011;2244;50.200;8.220;2023-03-01T09:53:48;24.90;;;15.80;;
4462;SDS011;2244;50.200;8.220;2023-03-01T09:56:22;25.43;;;16.47;;
4462;SDS011;2244;50.200;8.220;2023-03-01T10:01:30;24.97;;;16.60;;
4462;SDS011;2244;50.200;8.220;2023-03-01T10:06:34;25.10;;;15.93;;
4462;SDS011;2244;50.200;8.220;2023-03-01T10:09:05;25.70;;;16.17;;
4462;SDS011;2244;50.200;8.220;2023-03-01T10:11:35;26.07;;;15.30;;
4462;SDS011;2244;50.200;8.220;2023-03-01T10:14:03;27.77;;;17.70;;
4462;SDS011;2244;50.200;8.220;2023-03-01T10:19:20;28.13;;;17.07;;
4462;SDS011;2244;50.200;8.220;2023-03-01T10:21:43;26.33;;;15.83;;
4462;SDS011;2244;50.200;8.220;2023-03-01T10:24:12;24.90;;;15.80;;
4462;SDS011;2244;50.200;8.220;2023-03-01T10:29:22;24.67;;;15.87;;
4462;SDS011;2244;50.200;8.220;2023-03-01T10:31:50;23.60;;;14.50;;
4462;SDS011;2244;50.200;8.220;2023-03-01T10:34:20;25.10;;;16.53;;
4462;SDS011;2244;50.200;8.220;2023-03-01T10:36:48;25.70;;;15.60;;
4462;SDS011;2244;50.200;8.220;2023-03-01T10:39:17;26.00;;;16.10;;
4462;SDS011;2244;50.200;8.220;2023-03-01T10:41:56;25.50;;;15.50;;
4462;SDS011;2244;50.200;8.220;2023-03-01T10:44:40;24.60;;;14.17;;
4462;SDS011;2244;50.200;8.220;2023-03-01T10:47:12;26.70;;;16.87;;
4462;SDS011;2244;50.200;8.220;2023-03-01T10:49:36;25.10;;;15.83;;
4462;SDS011;2244;50.200;8.220;2023-03-01T10:52:20;26.47;;;16.50;;
4462;SDS011;2244;50.200;8.220;2023-03-01T10:54:54;25.20;;;15.20;;
4462;SDS011;2244;50.200;8.220;2023-03-01T10:57:40;25.27;;;14.63;;
4462;SDS011;2244;50.200;8.220;2023-03-01T11:00:24;24.10;;;14.63;;
4462;SDS011;2244;50.200;8.220;2023-03-01T11:05:27;25.70;;;15.37;;
4462;SDS011;2244;50.200;8.220;2023-03-01T11:07:59;23.47;;;13.47;;
4462;SDS011;2244;50.200;8.220;2023-03-01T11:10:32;25.53;;;15.30;;
4462;SDS011;2244;50.200;8.220;2023-03-01T11:13:06;27.20;;;15.00;;
4462;SDS011;2244;50.200;8.220;2023-03-01T11:15:34;23.03;;;14.23;;
4462;SDS011;2244;50.200;8.220;2023-03-01T11:18:03;21.43;;;13.43;;
4462;SDS011;2244;50.200;8.220;2023-03-01T11:20:33;23.63;;;14.40;;
4462;SDS011;2244;50.200;8.220;2023-03-01T11:23:04;22.40;;;13.87;;
4462;SDS011;2244;50.200;8.220;2023-03-01T11:25:39;23.47;;;14.63;;
4462;SDS011;2244;50.200;8.220;2023-03-01T11:28:03;24.07;;;14.07;;
4462;SDS011;2244;50.200;8.220;2023-03-01T11:30:45;21.77;;;14.17;;
4462;SDS011;2244;50.200;8.220;2023-03-01T11:35:29;22.57;;;13.87;;
4462;SDS011;2244;50.200;8.220;2023-03-01T11:43:20;28.83;;;14.67;;
4462;SDS011;2244;50.200;8.220;2023-03-01T11:48:25;20.93;;;13.80;;
4462;SDS011;2244;50.200;8.220;2023-03-01T11:50:48;20.50;;;12.63;;
4462;SDS011;2244;50.200;8.220;2023-03-01T12:01:24;19.73;;;11.37;;
4462;SDS011;2244;50.200;8.220;2023-03-01T12:04:03;24.93;;;11.70;;
4462;SDS011;2244;50.200;8.220;2023-03-01T12:09:03;20.47;;;12.23;;
4462;SDS011;2244;50.200;8.220;2023-03-01T12:11:41;18.90;;;11.60;;
4462;SDS011;2244;50.200;8.220;2023-03-01T12:16:57;17.53;;;10.97;;
4462;SDS011;2244;50.200;8.220;2023-03-01T12:21:59;19.13;;;11.53;;
4462;SDS011;2244;50.200;8.220;2023-03-01T12:27:05;19.77;;;11.83;;
4462;SDS011;2244;50.200;8.220;2023-03-01T12:29:31;20.40;;;11.40;;
4462;SDS011;2244;50.200;8.220;2023-03-01T12:34:52;19.60;;;11.37;;
4462;SDS011;2244;50.200;8.220;2023-03-01T12:45:26;20.13;;;9.83;;
4462;SDS011;2244;50.200;8.220;2023-03-01T12:50:24;21.50;;;10.83;;
4462;SDS011;2244;50.200;8.220;2023-03-01T12:52:53;24.23;;;11.27;;
4462;SDS011;2244;50.200;8.220;2023-03-01T13:00:35;17.40;;;9.87;;
4462;SDS011;2244;50.200;8.220;2023-03-01T13:03:09;19.70;;;11.10;;
4462;SDS011;2244;50.200;8.220;2023-03-01T13:05:36;18.67;;;11.13;;
4462;SDS011;2244;50.200;8.220;2023-03-01T13:08:13;17.47;;;10.10;;
4462;SDS011;2244;50.200;8.220;2023-03-01T13:10:46;19.00;;;11.80;;
4462;SDS011;2244;50.200;8.220;2023-03-01T13:13:21;16.60;;;9.50;;
4462;SDS011;2244;50.200;8.220;2023-03-01T13:15:49;17.17;;;10.50;;
4462;SDS011;2244;50.200;8.220;2023-03-01T13:20:49;22.30;;;12.53;;
4462;SDS011;2244;50.200;8.220;2023-03-01T13:33:49;19.07;;;11.03;;
4462;SDS011;2244;50.200;8.220;2023-03-01T13:39:02;19.50;;;10.87;;
4462;SDS011;2244;50.200;8.220;2023-03-01T13:46:58;20.27;;;11.67;;
4462;SDS011;2244;50.200;8.220;2023-03-01T13:49:22;18.30;;;10.30;;
4462;SDS011;2244;50.200;8.220;2023-03-01T13:51:50;18.93;;;10.47;;
4462;SDS011;2244;50.200;8.220;2023-03-01T13:54:30;19.20;;;10.40;;
4462;SDS011;2244;50.200;8.220;2023-03-01T13:56:59;17.93;;;10.70;;
4462;SDS011;2244;50.200;8.220;2023-03-01T13:59:27;19.23;;;10.07;;
4462;SDS011;2244;50.200;8.220;2023-03-01T14:01:57;16.90;;;10.20;;
4462;SDS011;2244;50.200;8.220;2023-03-01T14:04:26;18.17;;;10.03;;
4462;SDS011;2244;50.200;8.220;2023-03-01T14:07:12;20.30;;;10.30;;
4462;SDS011;2244;50.200;8.220;2023-03-01T14:09:41;19.00;;;10.07;;
4462;SDS011;2244;50.200;8.220;2023-03-01T14:12:21;17.87;;;10.20;;
4462;SDS011;2244;50.200;8.220;2023-03-01T14:17:31;17.33;;;11.20;;
4462;SDS011;2244;50.200;8.220;2023-03-01T14:20:01;18.83;;;10.70;;
4462;SDS011;2244;50.200;8.220;2023-03-01T14:22:32;17.80;;;10.60;;
4462;SDS011;2244;50.200;8.220;2023-03-01T14:25:05;19.23;;;11.00;;
4462;SDS011;2244;50.200;8.220;2023-03-01T14:27:30;18.17;;;9.90;;
4462;SDS011;2244;50.200;8.220;2023-03-01T14:29:58;18.20;;;10.03;;
4462;SDS011;2244;50.200;8.220;2023-03-01T14:32:31;16.53;;;10.30;;
4462;SDS011;2244;50.200;8.220;2023-03-01T14:34:55;17.40;;;10.60;;
4462;SDS011;2244;50.200;8.220;2023-03-01T14:37:29;16.53;;;9.90;;
4462;SDS011;2244;50.200;8.220;2023-03-01T14:39:58;17.80;;;10.73;;
4462;SDS011;2244;50.200;8.220;2023-03-01T14:42:29;19.13;;;11.00;;
4462;SDS011;2244;50.200;8.220;2023-03-01T14:44:57;18.80;;;10.03;;
4462;SDS011;2244;50.200;8.220;2023-03-01T14:47:26;18.70;;;11.10;;
4462;SDS011;2244;50.200;8.220;2023-03-01T14:49:58;19.37;;;11.63;;
4462;SDS011;2244;50.200;8.220;2023-03-01T14:52:31;21.37;;;11.67;;
4462;SDS011;2244;50.200;8.220;2023-03-01T14:54:55;20.43;;;11.53;;
4462;SDS011;2244;50.200;8.220;2023-03-01T14:57:27;21.03;;;11.27;;
4462;SDS011;2244;50.200;8.220;2023-03-01T14:59:52;17.27;;;10.23;;
4462;SDS011;2244;50.200;8.220;2023-03-01T15:02:22;18.70;;;10.50;;
4462;SDS011;2244;50.200;8.220;2023-03-01T15:04:51;22.17;;;11.80;;
4462;SDS011;2244;50.200;8.220;2023-03-01T15:07:18;17.10;;;10.27;;
4462;SDS011;2244;50.200;8.220;2023-03-01T15:09:46;20.67;;;11.37;;
4462;SDS011;2244;50.200;8.220;2023-03-01T15:14:58;17.90;;;10.40;;
4462;SDS011;2244;50.200;8.220;2023-03-01T15:17:31;18.60;;;10.47;;
4462;SDS011;2244;50.200;8.220;2023-03-01T15:19:59;18.83;;;11.60;;
4462;SDS011;2244;50.200;8.220;2023-03-01T15:22:26;22.70;;;11.70;;
4462;SDS011;2244;50.200;8.220;2023-03-01T15:24:54;21.40;;;10.50;;
4462;SDS011;2244;50.200;8.220;2023-03-01T15:27:22;19.77;;;10.73;;
4462;SDS011;2244;50.200;8.220;2023-03-01T15:29:56;17.97;;;9.70;;
4462;SDS011;2244;50.200;8.220;2023-03-01T15:32:29;18.30;;;10.07;;
4462;SDS011;2244;50.200;8.220;2023-03-01T15:34:57;17.50;;;10.00;;
4462;SDS011;2244;50.200;8.220;2023-03-01T15:40:19;17.47;;;9.77;;
4462;SDS011;2244;50.200;8.220;2023-03-01T15:42:47;17.90;;;10.20;;
4462;SDS011;2244;50.200;8.220;2023-03-01T15:47:57;16.10;;;10.00;;
4462;SDS011;2244;50.200;8.220;2023-03-01T15:50:21;16.47;;;9.97;;
4462;SDS011;2244;50.200;8.220;2023-03-01T15:52:49;19.03;;;10.20;;
4462;SDS011;2244;50.200;8.220;2023-03-01T15:55:20;18.23;;;9.83;;
4462;SDS011;2244;50.200;8.220;2023-03-01T15:57:48;17.33;;;10.13;;
4462;SDS011;2244;50.200;8.220;2023-03-01T16:00:16;16.33;;;9.20;;
4462;SDS011;2244;50.200;8.220;2023-03-01T16:02:44;17.97;;;10.43;;
4462;SDS011;2244;50.200;8.220;2023-03-01T16:05:22;16.60;;;9.87;;
4462;SDS011;2244;50.200;8.220;2023-03-01T16:07:50;23.43;;;9.30;;
4462;SDS011;2244;50.200;8.220;2023-03-01T16:10:18;18.40;;;10.07;;
4462;SDS011;2244;50.200;8.220;2023-03-01T16:12:46;17.63;;;9.20;;
4462;SDS011;2244;50.200;8.220;2023-03-01T16:15:16;18.20;;;9.30;;
4462;SDS011;2244;50.200;8.220;2023-03-01T16:17:44;17.40;;;9.40;;
4462;SDS011;2244;50.200;8.220;2023-03-01T16:20:13;17.00;;;9.13;;
4462;SDS011;2244;50.200;8.220;2023-03-01T16:22:45;21.10;;;9.67;;
4462;SDS011;2244;50.200;8.220;2023-03-01T16:25:14;18.40;;;9.30;;
4462;SDS011;2244;50.200;8.220;2023-03-01T16:27:42;17.57;;;9.30;;
4462;SDS011;2244;50.200;8.220;2023-03-01T16:30:10;18.73;;;9.47;;
4462;SDS011;2244;50.200;8.220;2023-03-01T16:32:38;16.50;;;8.87;;
4462;SDS011;2244;50.200;8.220;2023-03-01T16:35:06;16.50;;;8.90;;
4462;SDS011;2244;50.200;8.220;2023-03-01T16:37:34;16.20;;;9.00;;